createdAt,value
2022-10-18T00:00:55.147Z,19.50
2022-10-18T00:01:58.433Z,23.35
2022-10-18T00:03:00.625Z,21.13
2022-10-18T00:04:10.480Z,20.00
2022-10-18T00:05:13.735Z,19.58
2022-10-18T00:06:15.750Z,21.17
2022-10-18T00:07:17.830Z,22.38
2022-10-18T00:08:21.485Z,25.52
2022-10-18T00:09:23.736Z,19.08
2022-10-18T00:10:26.578Z,21.00
2022-10-18T00:11:31.536Z,20.27
2022-10-18T00:12:36.200Z,21.25
2022-10-18T00:13:38.900Z,23.02
2022-10-18T00:14:41.273Z,20.60
2022-10-18T00:15:52.075Z,20.35
2022-10-18T00:16:54.903Z,20.85
2022-10-18T00:17:57.161Z,22.10
2022-10-18T00:19:04.845Z,22.55
2022-10-18T00:20:07.873Z,21.58
2022-10-18T00:21:17.231Z,20.15
2022-10-18T00:22:20.431Z,20.92
2022-10-18T00:23:23.867Z,17.98
2022-10-18T00:24:27.220Z,21.40
2022-10-18T00:25:29.184Z,20.05
2022-10-18T00:26:31.723Z,20.38
2022-10-18T00:27:35.011Z,21.85
2022-10-18T00:28:39.181Z,22.73
2022-10-18T00:29:41.201Z,20.05
2022-10-18T00:30:43.722Z,19.15
2022-10-18T00:31:45.830Z,20.15
2022-10-18T00:32:49.272Z,19.48
2022-10-18T00:33:54.544Z,22.00
2022-10-18T00:35:04.611Z,18.67
2022-10-18T00:36:07.572Z,17.20
2022-10-18T00:37:09.724Z,18.90
2022-10-18T00:38:11.979Z,19.80
2022-10-18T00:39:20.202Z,21.55
2022-10-18T00:40:23.621Z,19.05
2022-10-18T00:41:29.277Z,17.52
2022-10-18T00:42:34.536Z,20.60
2022-10-18T00:44:02.597Z,22.00
2022-10-18T00:45:19.799Z,17.23
2022-10-18T00:46:22.644Z,19.42
2022-10-18T00:47:24.895Z,17.48
2022-10-18T00:48:26.901Z,17.75
2022-10-18T00:49:52.962Z,20.20
2022-10-18T00:50:55.637Z,20.20
2022-10-18T00:52:05.257Z,18.23
2022-10-18T00:53:18.647Z,19.15
2022-10-18T00:54:21.333Z,19.73
2022-10-18T00:55:26.048Z,21.05
2022-10-18T00:56:32.675Z,20.50
2022-10-18T00:57:35.480Z,19.90
2022-10-18T00:58:38.535Z,20.17
2022-10-18T00:59:41.795Z,21.17
2022-10-18T01:00:46.862Z,17.60
2022-10-18T01:01:49.820Z,18.63
2022-10-18T01:02:52.660Z,20.60
2022-10-18T01:03:57.383Z,20.20
2022-10-18T01:05:02.742Z,17.90
2022-10-18T01:06:05.005Z,20.27
2022-10-18T01:07:32.255Z,20.85
2022-10-18T01:08:53.297Z,19.73
2022-10-18T01:10:14.526Z,21.90
2022-10-18T01:11:26.565Z,20.27
2022-10-18T01:13:02.397Z,18.50
2022-10-18T01:14:29.267Z,20.75
2022-10-18T01:15:42.820Z,20.60
2022-10-18T01:16:56.122Z,18.67
2022-10-18T01:18:08.156Z,20.23
2022-10-18T01:19:45.192Z,20.73
2022-10-18T01:21:25.283Z,19.98
2022-10-18T01:22:33.235Z,18.52
2022-10-18T01:24:02.226Z,22.08
2022-10-18T01:25:26.408Z,24.13
2022-10-18T01:27:08.825Z,20.58
2022-10-18T01:28:39.448Z,20.45
2022-10-18T01:30:12.132Z,23.23
2022-10-18T01:31:22.517Z,21.38
2022-10-18T01:32:33.000Z,19.77
2022-10-18T01:34:06.131Z,19.63
2022-10-18T01:35:15.155Z,18.05
2022-10-18T01:36:28.584Z,20.00
2022-10-18T01:37:33.269Z,23.00
2022-10-18T01:38:39.865Z,19.35
2022-10-18T01:39:45.961Z,22.25
2022-10-18T01:40:51.896Z,20.17
2022-10-18T01:41:56.128Z,18.83
2022-10-18T01:43:04.202Z,19.63
2022-10-18T01:44:16.127Z,18.60
2022-10-18T01:45:21.575Z,20.67
2022-10-18T01:46:26.594Z,20.00
2022-10-18T01:47:29.994Z,21.02
2022-10-18T01:48:32.419Z,21.55
2022-10-18T01:49:35.859Z,20.08
2022-10-18T01:50:38.266Z,17.40
2022-10-18T01:51:40.282Z,18.13
2022-10-18T01:52:52.214Z,18.55
2022-10-18T01:53:54.621Z,19.83
2022-10-18T01:54:58.521Z,22.42
2022-10-18T01:56:04.257Z,20.15
2022-10-18T01:57:23.591Z,15.98
2022-10-18T01:58:36.590Z,18.67
2022-10-18T01:59:55.246Z,19.70
2022-10-18T02:01:18.446Z,20.63
2022-10-18T02:02:32.772Z,18.10
2022-10-18T02:03:43.499Z,18.40
2022-10-18T02:04:54.551Z,17.92
2022-10-18T02:06:19.439Z,18.80
2022-10-18T02:07:27.502Z,18.20
2022-10-18T02:08:37.700Z,19.40
2022-10-18T02:09:52.840Z,20.15
2022-10-18T02:11:05.145Z,19.25
2022-10-18T02:12:11.150Z,18.40
2022-10-18T02:13:19.055Z,18.60
2022-10-18T02:14:25.798Z,18.92
2022-10-18T02:15:43.209Z,18.85
2022-10-18T02:16:54.845Z,20.77
2022-10-18T02:17:58.184Z,17.63
2022-10-18T02:19:15.917Z,19.90
2022-10-18T02:20:24.799Z,36.97
2022-10-18T02:21:29.823Z,20.33
2022-10-18T02:22:34.812Z,20.23
2022-10-18T02:23:38.742Z,17.67
2022-10-18T02:24:52.423Z,17.27
2022-10-18T02:25:54.936Z,18.00
2022-10-18T02:26:57.381Z,17.10
2022-10-18T02:27:59.664Z,19.48
2022-10-18T02:29:02.085Z,20.25
2022-10-18T02:30:05.653Z,18.73
2022-10-18T02:31:18.029Z,19.75
2022-10-18T02:32:39.683Z,18.98
2022-10-18T02:34:01.519Z,16.63
2022-10-18T02:35:11.100Z,21.65
2022-10-18T02:36:24.023Z,19.90
2022-10-18T02:37:32.981Z,21.98
2022-10-18T02:38:36.154Z,15.68
2022-10-18T02:39:46.031Z,18.67
2022-10-18T02:40:48.133Z,18.75
2022-10-18T02:41:51.798Z,20.13
2022-10-18T02:42:58.362Z,22.45
2022-10-18T02:44:03.515Z,15.18
2022-10-18T02:45:07.694Z,17.17
2022-10-18T02:46:09.782Z,19.65
2022-10-18T02:47:12.783Z,19.05
2022-10-18T02:48:14.877Z,18.10
2022-10-18T02:49:16.866Z,17.33
2022-10-18T02:50:19.271Z,19.77
2022-10-18T02:51:21.902Z,18.52
2022-10-18T02:52:24.240Z,16.80
2022-10-18T02:53:26.246Z,19.77
2022-10-18T02:54:29.664Z,19.17
2022-10-18T02:55:31.670Z,17.33
2022-10-18T02:56:33.708Z,16.80
2022-10-18T02:57:36.523Z,17.00
2022-10-18T02:58:39.590Z,18.13
2022-10-18T02:59:41.527Z,18.48
2022-10-18T03:00:43.459Z,18.80
2022-10-18T03:01:48.885Z,20.42
2022-10-18T03:02:53.082Z,18.75
2022-10-18T03:03:55.844Z,18.02
2022-10-18T03:05:00.028Z,23.25
2022-10-18T03:06:02.101Z,18.23
2022-10-18T03:07:04.419Z,16.55
2022-10-18T03:08:06.512Z,17.92
2022-10-18T03:09:10.098Z,19.95
2022-10-18T03:10:12.046Z,20.05
2022-10-18T03:11:16.261Z,17.25
2022-10-18T03:12:19.912Z,18.20
2022-10-18T03:13:22.295Z,15.63
2022-10-18T03:14:24.798Z,18.73
2022-10-18T03:15:26.873Z,17.90
2022-10-18T03:16:29.137Z,20.70
2022-10-18T03:17:31.377Z,16.65
2022-10-18T03:18:33.639Z,17.92
2022-10-18T03:19:41.209Z,17.63
2022-10-18T03:20:45.488Z,20.17
2022-10-18T03:21:47.855Z,21.42
2022-10-18T03:22:50.633Z,18.88
2022-10-18T03:23:52.957Z,28.15
2022-10-18T03:24:54.887Z,20.80
2022-10-18T03:25:58.310Z,18.60
2022-10-18T03:27:00.639Z,23.65
2022-10-18T03:28:07.217Z,19.55
2022-10-18T03:29:10.761Z,19.65
2022-10-18T03:30:15.985Z,20.73
2022-10-18T03:31:17.943Z,20.33
2022-10-18T03:32:20.953Z,18.13
2022-10-18T03:33:23.005Z,19.35
2022-10-18T03:34:25.069Z,20.38
2022-10-18T03:35:28.033Z,20.02
2022-10-18T03:36:30.266Z,18.52
2022-10-18T03:37:33.802Z,19.70
2022-10-18T03:38:37.118Z,21.90
2022-10-18T03:39:39.224Z,17.48
2022-10-18T03:40:41.427Z,19.65
2022-10-18T03:41:43.513Z,19.48
2022-10-18T03:42:46.389Z,18.20
2022-10-18T03:43:48.410Z,18.15
2022-10-18T03:44:50.445Z,18.52
2022-10-18T03:45:53.090Z,20.33
2022-10-18T03:46:55.427Z,20.98
2022-10-18T03:47:57.423Z,20.85
2022-10-18T03:48:59.377Z,23.20
2022-10-18T03:50:01.325Z,19.58
2022-10-18T03:51:04.311Z,21.48
2022-10-18T03:52:07.777Z,18.05
2022-10-18T03:53:09.777Z,19.90
2022-10-18T03:54:11.797Z,22.92
2022-10-18T03:55:16.726Z,22.73
2022-10-18T03:56:19.040Z,19.98
2022-10-18T03:57:20.956Z,21.05
2022-10-18T03:58:24.825Z,18.13
2022-10-18T03:59:27.090Z,21.90
2022-10-18T04:00:29.246Z,19.90
2022-10-18T04:01:31.633Z,18.90
2022-10-18T04:02:42.406Z,17.75
2022-10-18T04:03:44.566Z,17.75
2022-10-18T04:04:46.579Z,17.83
2022-10-18T04:05:49.496Z,20.85
2022-10-18T04:06:51.711Z,18.48
2022-10-18T04:07:54.803Z,16.83
2022-10-18T04:08:56.854Z,17.42
2022-10-18T04:09:59.016Z,19.88
2022-10-18T04:11:08.473Z,20.08
2022-10-18T04:12:10.579Z,22.23
2022-10-18T04:13:12.653Z,17.98
2022-10-18T04:14:14.763Z,21.85
2022-10-18T04:15:18.097Z,21.70
2022-10-18T04:16:22.871Z,21.60
2022-10-18T04:17:24.977Z,18.90
2022-10-18T04:18:26.915Z,20.50
2022-10-18T04:19:29.055Z,22.38
2022-10-18T04:20:31.152Z,23.85
2022-10-18T04:21:33.212Z,23.33
2022-10-18T04:22:35.252Z,24.08
2022-10-18T04:23:39.675Z,22.60
2022-10-18T04:24:41.644Z,22.48
2022-10-18T04:26:45.950Z,21.05
2022-10-18T04:27:48.227Z,19.77
2022-10-18T04:28:50.422Z,22.00
2022-10-18T04:29:52.697Z,21.08
2022-10-18T04:30:54.670Z,19.20
2022-10-18T04:31:56.773Z,21.27
2022-10-18T04:32:58.995Z,18.10
2022-10-18T04:34:02.460Z,21.58
2022-10-18T04:35:05.901Z,19.92
2022-10-18T04:36:08.412Z,19.90
2022-10-18T04:37:10.551Z,22.02
2022-10-18T04:38:14.377Z,20.00
2022-10-18T04:39:16.816Z,20.27
2022-10-18T04:40:20.090Z,23.08
2022-10-18T04:41:22.194Z,22.55
2022-10-18T04:42:24.671Z,21.23
2022-10-18T04:43:26.614Z,21.63
2022-10-18T04:44:28.639Z,21.73
2022-10-18T04:45:31.132Z,22.23
2022-10-18T04:46:33.322Z,23.85
2022-10-18T04:47:35.536Z,20.98
2022-10-18T04:48:37.695Z,20.10
2022-10-18T04:49:39.966Z,18.23
2022-10-18T04:50:43.207Z,21.77
2022-10-18T04:51:50.604Z,25.35
2022-10-18T04:52:53.710Z,20.17
2022-10-18T04:53:56.956Z,21.40
2022-10-18T04:54:59.222Z,21.67
2022-10-18T04:56:01.703Z,19.85
2022-10-18T04:57:04.093Z,20.08
2022-10-18T04:58:06.149Z,21.83
2022-10-18T04:59:08.588Z,19.13
2022-10-18T05:00:13.412Z,20.42
2022-10-18T05:01:17.362Z,21.15
2022-10-18T05:02:19.374Z,21.98
2022-10-18T05:03:23.448Z,22.52
2022-10-18T05:04:25.613Z,22.77
2022-10-18T05:05:43.484Z,21.17
2022-10-18T05:06:50.445Z,24.40
2022-10-18T05:07:54.248Z,21.67
2022-10-18T05:08:56.252Z,22.05
2022-10-18T05:09:58.320Z,23.30
2022-10-18T05:11:01.328Z,22.80
2022-10-18T05:12:03.441Z,21.85
2022-10-18T05:13:07.579Z,23.50
2022-10-18T05:14:10.428Z,23.05
2022-10-18T05:15:12.454Z,23.85
2022-10-18T05:16:16.789Z,25.02
2022-10-18T05:17:18.805Z,25.30
2022-10-18T05:18:21.725Z,26.48
2022-10-18T05:19:25.307Z,27.83
2022-10-18T05:20:27.578Z,23.52
2022-10-18T05:21:29.646Z,25.55
2022-10-18T05:22:31.982Z,22.88
2022-10-18T05:23:35.447Z,24.45
2022-10-18T05:24:37.489Z,25.83
2022-10-18T05:25:44.356Z,20.88
2022-10-18T05:26:46.795Z,23.45
2022-10-18T05:27:48.848Z,22.88
2022-10-18T05:28:51.935Z,24.08
2022-10-18T05:29:54.373Z,24.13
2022-10-18T05:30:56.618Z,25.40
2022-10-18T05:31:58.584Z,24.63
2022-10-18T05:33:00.900Z,28.45
2022-10-18T05:34:03.364Z,26.55
2022-10-18T05:35:06.475Z,23.58
2022-10-18T05:36:09.214Z,26.40
2022-10-18T05:37:12.399Z,26.50
2022-10-18T05:38:14.471Z,25.95
2022-10-18T05:39:16.524Z,22.63
2022-10-18T05:40:18.648Z,25.73
2022-10-18T05:41:21.081Z,28.45
2022-10-18T05:42:23.175Z,30.13
2022-10-18T05:43:29.092Z,26.48
2022-10-18T05:44:31.716Z,26.98
2022-10-18T05:45:33.679Z,24.65
2022-10-18T05:46:36.774Z,22.15
2022-10-18T05:47:38.999Z,25.73
2022-10-18T05:48:41.414Z,22.38
2022-10-18T05:49:43.448Z,24.80
2022-10-18T05:50:46.241Z,23.77
2022-10-18T05:51:49.800Z,27.85
2022-10-18T05:52:52.368Z,27.27
2022-10-18T05:53:54.956Z,27.63
2022-10-18T05:54:59.609Z,25.73
2022-10-18T05:56:03.124Z,24.95
2022-10-18T05:57:05.464Z,27.05
2022-10-18T05:58:07.512Z,29.40
2022-10-18T05:59:12.456Z,25.58
2022-10-18T06:00:14.897Z,27.58
2022-10-18T06:01:18.154Z,27.67
2022-10-18T06:02:20.336Z,26.00
2022-10-18T06:03:22.448Z,29.25
2022-10-18T06:04:24.406Z,26.38
2022-10-18T06:05:26.729Z,27.75
2022-10-18T06:06:28.796Z,24.85
2022-10-18T06:07:32.228Z,24.42
2022-10-18T06:08:35.199Z,31.10
2022-10-18T06:09:37.653Z,25.65
2022-10-18T06:10:40.648Z,28.80
2022-10-18T06:11:42.695Z,28.73
2022-10-18T06:12:46.272Z,28.20
2022-10-18T06:13:51.300Z,26.77
2022-10-18T06:14:54.134Z,28.80
2022-10-18T06:16:00.015Z,24.75
2022-10-18T06:17:02.118Z,26.45
2022-10-18T06:18:04.249Z,26.58
2022-10-18T06:19:06.807Z,29.25
2022-10-18T06:20:10.667Z,26.88
2022-10-18T06:21:12.852Z,27.15
2022-10-18T06:22:14.867Z,28.08
2022-10-18T06:23:20.649Z,26.02
2022-10-18T06:24:22.954Z,26.95
2022-10-18T06:25:25.134Z,30.73
2022-10-18T06:26:28.764Z,31.48
2022-10-18T06:27:32.142Z,28.00
2022-10-18T06:28:36.449Z,25.27
2022-10-18T06:29:40.038Z,24.60
2022-10-18T06:30:44.849Z,26.30
2022-10-18T06:31:47.160Z,23.88
2022-10-18T06:32:51.471Z,26.20
2022-10-18T06:33:58.984Z,26.50
2022-10-18T06:35:01.088Z,26.10
2022-10-18T06:36:06.415Z,24.35
2022-10-18T06:37:09.485Z,27.02
2022-10-18T06:38:11.479Z,27.73
2022-10-18T06:39:15.413Z,27.23
2022-10-18T06:40:18.065Z,27.98
2022-10-18T06:41:23.173Z,25.33
2022-10-18T06:42:25.548Z,25.13
2022-10-18T06:43:29.864Z,26.42
2022-10-18T06:44:34.666Z,25.88
2022-10-18T06:45:36.957Z,26.27
2022-10-18T06:46:39.461Z,26.20
2022-10-18T06:47:41.665Z,26.20
2022-10-18T06:48:45.063Z,26.35
2022-10-18T06:49:47.276Z,30.77
2022-10-18T06:50:54.688Z,25.58
2022-10-18T06:51:56.643Z,26.27
2022-10-18T06:52:58.718Z,29.52
2022-10-18T06:54:18.641Z,31.77
2022-10-18T06:55:21.137Z,27.52
2022-10-18T06:56:24.946Z,27.83
2022-10-18T06:57:27.539Z,25.98
2022-10-18T06:58:30.920Z,31.35
2022-10-18T06:59:32.891Z,31.42
2022-10-18T07:00:35.865Z,29.88
2022-10-18T07:01:38.019Z,29.20
2022-10-18T07:02:41.415Z,28.70
2022-10-18T07:03:44.359Z,28.13
2022-10-18T07:04:46.546Z,27.55
2022-10-18T07:05:49.612Z,28.35
2022-10-18T07:06:56.642Z,31.05
2022-10-18T07:07:59.441Z,27.17
2022-10-18T07:09:03.224Z,29.15
2022-10-18T07:10:06.158Z,27.05
2022-10-18T07:11:09.241Z,28.15
2022-10-18T07:12:12.254Z,26.77
2022-10-18T07:13:31.362Z,26.48
2022-10-18T07:14:34.268Z,24.75
2022-10-18T07:15:38.707Z,31.38
2022-10-18T07:16:44.375Z,28.50
2022-10-18T07:17:46.584Z,30.67
2022-10-18T07:18:54.378Z,25.98
2022-10-18T07:19:56.411Z,25.65
2022-10-18T07:21:01.760Z,29.00
2022-10-18T07:22:03.930Z,27.15
2022-10-18T07:23:08.622Z,32.10
2022-10-18T07:24:10.657Z,24.83
2022-10-18T07:25:12.827Z,29.38
2022-10-18T07:26:30.033Z,23.52
2022-10-18T07:27:32.334Z,25.10
2022-10-18T07:28:35.481Z,28.42
2022-10-18T07:29:41.080Z,28.13
2022-10-18T07:30:44.690Z,29.40
2022-10-18T07:31:46.734Z,30.35
2022-10-18T07:32:51.069Z,28.45
2022-10-18T07:33:54.748Z,27.33
2022-10-18T07:34:57.034Z,27.35
2022-10-18T07:36:06.203Z,27.80
2022-10-18T07:37:11.180Z,27.65
2022-10-18T07:38:17.760Z,26.02
2022-10-18T07:39:20.951Z,26.63
2022-10-18T07:40:23.279Z,26.30
2022-10-18T07:41:25.884Z,26.23
2022-10-18T07:42:29.027Z,27.45
2022-10-18T07:43:31.260Z,27.60
2022-10-18T07:44:33.190Z,25.23
2022-10-18T07:45:35.422Z,29.10
2022-10-18T07:46:37.699Z,28.02
2022-10-18T07:47:40.526Z,26.80
2022-10-18T07:48:43.330Z,28.38
2022-10-18T07:49:45.544Z,26.90
2022-10-18T07:50:49.939Z,29.08
2022-10-18T07:51:54.047Z,26.92
2022-10-18T07:52:56.062Z,28.23
2022-10-18T07:53:58.399Z,32.08
2022-10-18T07:55:00.617Z,30.27
2022-10-18T07:56:08.774Z,28.10
2022-10-18T07:57:12.181Z,32.03
2022-10-18T07:58:15.676Z,30.63
2022-10-18T07:59:21.007Z,28.35
2022-10-18T08:00:23.116Z,27.55
2022-10-18T08:01:25.759Z,29.20
2022-10-18T08:02:27.992Z,32.08
2022-10-18T08:03:31.598Z,32.28
2022-10-18T08:04:34.085Z,29.08
2022-10-18T08:05:37.831Z,30.05
2022-10-18T08:06:42.527Z,31.67
2022-10-18T08:07:46.833Z,27.00
2022-10-18T08:08:50.051Z,29.75
2022-10-18T08:09:52.060Z,31.40
2022-10-18T08:10:54.421Z,29.75
2022-10-18T08:11:56.392Z,32.72
2022-10-18T08:12:58.611Z,27.67
2022-10-18T08:14:00.661Z,32.00
2022-10-18T08:15:04.543Z,30.92
2022-10-18T08:16:09.738Z,33.28
2022-10-18T08:17:11.752Z,36.17
2022-10-18T08:18:13.933Z,34.35
2022-10-18T08:19:15.948Z,32.70
2022-10-18T08:20:30.422Z,30.77
2022-10-18T08:21:33.577Z,32.78
2022-10-18T08:22:36.352Z,37.28
2022-10-18T08:23:39.425Z,34.72
2022-10-18T08:24:42.900Z,29.38
2022-10-18T08:25:44.860Z,36.13
2022-10-18T08:26:48.991Z,33.88
2022-10-18T08:27:51.053Z,34.95
2022-10-18T08:28:54.334Z,32.80
2022-10-18T08:30:06.155Z,33.30
2022-10-18T08:31:13.332Z,32.63
2022-10-18T08:32:16.361Z,32.70
2022-10-18T08:33:18.928Z,33.10
2022-10-18T08:34:20.969Z,36.35
2022-10-18T08:35:24.356Z,37.33
2022-10-18T08:36:26.303Z,31.63
2022-10-18T08:37:29.538Z,35.47
2022-10-18T08:38:33.338Z,35.80
2022-10-18T08:39:35.318Z,28.83
2022-10-18T08:40:43.609Z,32.65
2022-10-18T08:42:12.631Z,30.17
2022-10-18T08:44:45.815Z,31.85
2022-10-18T08:45:51.152Z,31.58
2022-10-18T08:47:02.865Z,29.80
2022-10-18T08:48:06.971Z,30.20
2022-10-18T08:49:28.613Z,34.10
2022-10-18T08:50:37.928Z,30.27
2022-10-18T08:51:45.181Z,31.52
2022-10-18T08:53:27.503Z,29.70
2022-10-18T08:54:37.634Z,28.25
2022-10-18T08:56:56.685Z,31.80
2022-10-18T08:57:59.190Z,28.52
2022-10-18T08:59:04.272Z,30.20
2022-10-18T09:00:17.360Z,24.85
2022-10-18T09:03:05.610Z,25.90
2022-10-18T09:04:16.471Z,26.55
2022-10-18T09:05:53.861Z,26.42
2022-10-18T09:07:22.078Z,28.30
2022-10-18T09:08:52.497Z,25.80
2022-10-18T09:10:05.193Z,31.63
2022-10-18T09:11:15.999Z,26.77
2022-10-18T09:12:36.634Z,28.02
2022-10-18T09:13:41.725Z,28.67
2022-10-18T09:15:01.490Z,25.30
2022-10-18T09:16:17.648Z,26.55
2022-10-18T09:17:22.392Z,28.50
2022-10-18T09:18:38.984Z,29.17
2022-10-18T09:19:55.216Z,27.63
2022-10-18T09:21:07.217Z,26.80
2022-10-18T09:22:14.546Z,29.00
2022-10-18T09:23:21.894Z,25.30
2022-10-18T09:24:53.474Z,24.60
2022-10-18T09:25:58.900Z,28.67
2022-10-18T09:27:09.721Z,25.90
2022-10-18T09:28:34.482Z,26.90
2022-10-18T09:29:51.330Z,24.88
2022-10-18T09:30:59.779Z,29.63
2022-10-18T09:32:14.686Z,29.65
2022-10-18T09:33:54.888Z,29.02
2022-10-18T09:35:14.381Z,25.38
2022-10-18T09:36:33.802Z,24.67
2022-10-18T09:37:38.698Z,27.17
2022-10-18T09:39:05.933Z,24.48
2022-10-18T09:40:23.248Z,28.05
2022-10-18T09:41:40.351Z,24.30
2022-10-18T09:42:55.339Z,25.45
2022-10-18T09:43:59.982Z,25.17
2022-10-18T09:45:30.960Z,21.15
2022-10-18T09:46:41.270Z,21.25
2022-10-18T09:47:54.922Z,21.48
2022-10-18T09:49:05.172Z,23.85
2022-10-18T09:50:28.126Z,22.90
2022-10-18T09:51:44.715Z,23.02
2022-10-18T09:52:58.752Z,23.63
2022-10-18T09:54:30.170Z,25.42
2022-10-18T09:55:39.104Z,25.40
2022-10-18T09:58:02.913Z,23.58
2022-10-18T09:59:05.490Z,25.25
2022-10-18T10:00:16.345Z,22.83
2022-10-18T10:01:26.494Z,22.13
2022-10-18T10:02:28.594Z,24.23
2022-10-18T10:03:31.667Z,23.67
2022-10-18T10:04:33.762Z,21.67
2022-10-18T10:05:35.792Z,23.45
2022-10-18T10:06:39.269Z,27.90
2022-10-18T10:07:48.612Z,21.83
2022-10-18T10:09:07.762Z,25.10
2022-10-18T10:10:24.974Z,23.20
2022-10-18T10:11:38.882Z,21.67
2022-10-18T10:12:41.484Z,23.65
2022-10-18T10:13:46.103Z,22.45
2022-10-18T10:14:48.114Z,20.17
2022-10-18T10:16:00.412Z,23.80
2022-10-18T10:17:24.515Z,23.60
2022-10-18T10:18:39.333Z,23.75
2022-10-18T10:20:04.945Z,26.02
2022-10-18T10:21:13.418Z,23.90
2022-10-18T10:22:15.635Z,21.52
2022-10-18T10:23:36.307Z,19.85
2022-10-18T10:24:51.729Z,21.05
2022-10-18T10:26:01.435Z,19.13
2022-10-18T10:27:14.598Z,19.15
2022-10-18T10:28:20.183Z,18.73
2022-10-18T10:29:48.174Z,22.30
2022-10-18T10:30:52.920Z,23.17
2022-10-18T10:32:04.638Z,19.77
2022-10-18T10:33:34.402Z,19.73
2022-10-18T10:34:38.826Z,20.60
2022-10-18T10:35:53.164Z,23.90
2022-10-18T10:36:56.071Z,20.65
2022-10-18T10:37:58.467Z,22.80
2022-10-18T10:39:11.999Z,25.10
2022-10-18T10:40:28.481Z,25.00
2022-10-18T10:42:48.733Z,23.55
2022-10-18T10:43:51.634Z,22.23
2022-10-18T10:44:55.555Z,24.20
2022-10-18T10:46:01.871Z,23.40
2022-10-18T10:47:04.647Z,20.65
2022-10-18T10:48:14.449Z,23.90
2022-10-18T10:49:46.303Z,22.45
2022-10-18T10:50:57.332Z,22.85
2022-10-18T10:52:25.643Z,20.30
2022-10-18T10:53:51.066Z,22.75
2022-10-18T10:55:05.412Z,22.13
2022-10-18T10:56:54.764Z,22.27
2022-10-18T10:57:56.887Z,24.20
2022-10-18T10:59:08.662Z,21.77
2022-10-18T11:00:39.907Z,22.42
2022-10-18T11:01:42.202Z,27.08
2022-10-18T11:02:55.402Z,20.80
2022-10-18T11:04:24.316Z,24.15
2022-10-18T11:05:29.544Z,21.63
2022-10-18T11:06:32.970Z,20.75
2022-10-18T11:07:44.899Z,22.65
2022-10-18T11:08:47.322Z,24.52
2022-10-18T11:10:10.892Z,23.40
2022-10-18T11:11:28.044Z,23.05
2022-10-18T11:12:38.292Z,25.15
2022-10-18T11:14:21.057Z,22.83
2022-10-18T11:15:42.223Z,24.75
2022-10-18T11:17:06.957Z,24.50
2022-10-18T11:18:30.613Z,24.60
2022-10-18T11:19:40.294Z,24.00
2022-10-18T11:20:44.450Z,25.02
2022-10-18T11:21:47.045Z,24.33
2022-10-18T11:23:33.715Z,22.17
2022-10-18T11:24:36.479Z,24.10
2022-10-18T11:25:59.074Z,24.83
2022-10-18T11:27:18.747Z,22.38
2022-10-18T11:29:05.806Z,23.13
2022-10-18T11:30:31.046Z,25.92
2022-10-18T11:31:39.650Z,23.02
2022-10-18T11:33:09.423Z,23.77
2022-10-18T11:34:42.814Z,23.83
2022-10-18T11:36:02.851Z,21.48
2022-10-18T11:37:29.431Z,22.35
2022-10-18T11:38:46.142Z,21.40
2022-10-18T11:40:25.081Z,23.50
2022-10-18T11:41:31.707Z,25.02
2022-10-18T11:43:14.854Z,25.13
2022-10-18T11:44:30.317Z,27.25
2022-10-18T11:45:39.142Z,25.48
2022-10-18T11:47:14.679Z,25.52
2022-10-18T11:48:42.582Z,29.50
2022-10-18T11:50:02.966Z,28.27
2022-10-18T11:51:34.116Z,27.35
2022-10-18T11:53:08.276Z,23.80
2022-10-18T11:54:34.411Z,24.25
2022-10-18T11:56:00.411Z,26.77
2022-10-18T11:57:18.331Z,26.55
2022-10-18T11:58:46.238Z,24.02
2022-10-18T12:00:16.173Z,24.13
2022-10-18T12:01:32.130Z,24.13
2022-10-18T12:03:13.057Z,22.58
2022-10-18T12:04:23.541Z,21.75
2022-10-18T12:05:25.776Z,21.90
2022-10-18T12:06:34.014Z,26.25
2022-10-18T12:08:05.824Z,23.60
2022-10-18T12:09:11.900Z,25.55
2022-10-18T12:10:31.467Z,22.48
2022-10-18T12:12:23.570Z,26.33
2022-10-18T12:13:34.164Z,22.13
2022-10-18T12:14:55.057Z,20.13
2022-10-18T12:15:57.804Z,19.73
2022-10-18T12:17:41.651Z,21.75
2022-10-18T12:18:32.861Z,23.42
2022-10-18T12:19:35.537Z,21.67
2022-10-18T12:20:43.570Z,21.02
2022-10-18T12:21:47.060Z,21.98
2022-10-18T12:23:05.766Z,20.55
2022-10-18T12:25:15.444Z,19.70
2022-10-18T12:26:18.014Z,24.88
2022-10-18T12:27:30.868Z,21.80
2022-10-18T12:28:32.867Z,20.88
2022-10-18T12:29:51.661Z,21.77
2022-10-18T12:31:17.084Z,22.25
2022-10-18T12:32:25.246Z,18.10
2022-10-18T12:33:34.488Z,18.90
2022-10-18T12:34:58.792Z,20.67
2022-10-18T12:36:21.674Z,22.63
2022-10-18T12:37:51.925Z,20.88
2022-10-18T12:38:59.753Z,20.38
2022-10-18T12:40:22.513Z,21.13
2022-10-18T12:41:34.877Z,20.70
2022-10-18T12:42:44.353Z,21.33
2022-10-18T12:43:58.577Z,20.67
2022-10-18T12:45:13.938Z,20.35
2022-10-18T12:46:16.250Z,21.00
2022-10-18T12:47:26.457Z,25.05
2022-10-18T12:48:48.521Z,26.55
2022-10-18T12:50:04.768Z,22.92
2022-10-18T12:51:09.529Z,20.85
2022-10-18T12:52:23.620Z,20.15
2022-10-18T12:53:28.078Z,22.10
2022-10-18T12:54:32.730Z,20.30
2022-10-18T12:55:40.527Z,21.15
2022-10-18T12:56:46.961Z,21.30
2022-10-18T12:57:52.023Z,21.10
2022-10-18T12:59:13.925Z,18.55
2022-10-18T13:00:42.072Z,19.65
2022-10-18T13:01:50.907Z,18.65
2022-10-18T13:03:18.830Z,21.20
2022-10-18T13:04:39.127Z,21.95
2022-10-18T13:06:07.728Z,21.83
2022-10-18T13:07:19.874Z,19.60
2022-10-18T13:08:27.539Z,23.20
2022-10-18T13:09:30.860Z,22.30
2022-10-18T13:10:37.058Z,21.10
2022-10-18T13:11:39.163Z,19.40
2022-10-18T13:12:44.090Z,19.33
2022-10-18T13:14:08.769Z,21.50
2022-10-18T13:15:42.233Z,20.40
2022-10-18T13:17:07.310Z,22.83
2022-10-18T13:18:43.773Z,23.73
2022-10-18T13:20:07.759Z,19.40
2022-10-18T13:21:29.063Z,19.70
2022-10-18T13:23:01.612Z,22.45
2022-10-18T13:24:26.388Z,19.13
2022-10-18T13:25:45.184Z,18.27
2022-10-18T13:27:36.253Z,19.95
2022-10-18T13:28:57.337Z,22.65
2022-10-18T13:30:13.302Z,14.40
2022-10-18T13:31:29.569Z,14.75
2022-10-18T13:32:46.191Z,14.38
2022-10-18T13:33:48.673Z,12.45
2022-10-18T13:34:50.778Z,13.88
2022-10-18T13:36:22.576Z,14.27
2022-10-18T13:37:30.335Z,13.65
2022-10-18T13:38:58.506Z,11.90
2022-10-18T13:40:36.279Z,12.10
2022-10-18T13:41:42.231Z,12.68
2022-10-18T13:42:51.577Z,14.85
2022-10-18T13:43:53.617Z,10.23
2022-10-18T13:45:33.800Z,11.30
2022-10-18T13:46:38.683Z,11.77
2022-10-18T13:47:41.200Z,10.27
2022-10-18T13:48:43.142Z,9.27
2022-10-18T13:50:01.150Z,11.90
2022-10-18T13:51:22.122Z,9.48
2022-10-18T13:52:36.539Z,11.05
2022-10-18T13:53:54.268Z,9.65
2022-10-18T13:55:23.775Z,10.00
2022-10-18T13:56:41.508Z,10.45
2022-10-18T13:58:06.918Z,10.25
2022-10-18T13:59:14.991Z,12.95
2022-10-18T14:00:53.768Z,11.43
2022-10-18T14:04:14.735Z,10.80
2022-10-18T14:05:44.275Z,9.30
2022-10-18T14:06:47.721Z,9.02
2022-10-18T14:07:52.756Z,10.32
2022-10-18T14:08:54.750Z,11.07
2022-10-18T14:09:59.533Z,10.80
2022-10-18T14:11:22.666Z,9.00
2022-10-18T14:12:43.340Z,9.18
2022-10-18T14:13:54.913Z,10.95
2022-10-18T14:15:10.675Z,10.82
2022-10-18T14:16:33.704Z,8.02
2022-10-18T14:18:49.379Z,7.28
2022-10-18T14:20:02.027Z,8.02
2022-10-18T14:21:21.103Z,8.88
2022-10-18T14:22:46.599Z,9.02
2022-10-18T14:23:48.890Z,7.50
2022-10-18T14:24:59.373Z,8.55
2022-10-18T14:26:33.089Z,8.32
2022-10-18T14:27:36.037Z,7.40
2022-10-18T14:28:58.739Z,6.05
2022-10-18T14:30:15.340Z,9.07
2022-10-18T14:31:19.937Z,6.32
2022-10-18T14:32:30.034Z,6.90
2022-10-18T14:33:57.271Z,7.82
2022-10-18T14:35:30.528Z,9.27
2022-10-18T14:36:26.979Z,7.40
2022-10-18T14:37:34.697Z,7.07
2022-10-18T14:38:45.010Z,8.05
2022-10-18T14:39:47.040Z,12.77
2022-10-18T14:40:48.977Z,12.35
2022-10-18T14:41:54.306Z,8.32
2022-10-18T14:42:57.018Z,8.52
2022-10-18T14:44:20.127Z,10.90
2022-10-18T14:45:25.772Z,5.65
2022-10-18T14:46:30.030Z,6.45
2022-10-18T14:47:37.456Z,9.80
2022-10-18T14:48:39.467Z,6.00
2022-10-18T14:49:45.948Z,6.20
2022-10-18T14:51:00.295Z,18.50
2022-10-18T14:52:02.616Z,13.40
2022-10-18T14:53:07.704Z,12.68
2022-10-18T14:54:25.056Z,5.85
2022-10-18T14:55:31.003Z,7.18
2022-10-18T14:56:38.343Z,7.07
2022-10-18T14:57:40.371Z,6.78
2022-10-18T14:58:42.791Z,7.15
2022-10-18T14:59:55.859Z,7.78
2022-10-18T15:01:02.403Z,6.63
2022-10-18T15:02:16.751Z,7.00
2022-10-18T15:03:21.003Z,7.40